sensor_id;sensor_type;location;lat;lon;timestamp;pressure;altitude;pressure_sealevel;temperature;humidity
76868;BME280;66168;45.478;11.060;2023-04-03T00:00:31;100455.96;;;13.26;49.49
76868;BME280;66168;45.478;11.060;2023-04-03T00:02:57;100457.73;;;13.24;49.69
76868;BME280;66168;45.478;11.060;2023-04-03T00:05:23;100454.06;;;13.20;49.83
76868;BME280;66168;45.478;11.060;2023-04-03T00:07:49;100452.21;;;13.14;49.88
76868;BME280;66168;45.478;11.060;2023-04-03T00:10:16;100449.39;;;13.09;49.72
76868;BME280;66168;45.478;11.060;2023-04-03T00:12:42;100445.23;;;13.06;49.84
76868;BME280;66168;45.478;11.060;2023-04-03T00:15:08;100441.55;;;13.03;49.73
76868;BME280;66168;45.478;11.060;2023-04-03T00:17:34;100438.59;;;12.99;49.54
76868;BME280;66168;45.478;11.060;2023-04-03T00:20:02;100439.56;;;12.99;49.38
76868;BME280;66168;45.478;11.060;2023-04-03T00:22:28;100439.16;;;12.99;49.29
76868;BME280;66168;45.478;11.060;2023-04-03T00:24:55;100437.81;;;13.00;49.33
76868;BME280;66168;45.478;11.060;2023-04-03T00:27:21;100435.95;;;12.99;49.27
76868;BME280;66168;45.478;11.060;2023-04-03T00:29:47;100433.48;;;12.99;49.21
76868;BME280;66168;45.478;11.060;2023-04-03T00:32:14;100432.39;;;12.99;49.13
76868;BME280;66168;45.478;11.060;2023-04-03T00:34:40;100428.28;;;12.99;49.09
76868;BME280;66168;45.478;11.060;2023-04-03T00:37:06;100428.07;;;12.99;48.97
76868;BME280;66168;45.478;11.060;2023-04-03T00:39:32;100425.11;;;13.00;48.75
76868;BME280;66168;45.478;11.060;2023-04-03T00:41:58;100427.02;;;12.99;48.74
76868;BME280;66168;45.478;11.060;2023-04-03T00:46:53;100421.68;;;13.02;48.48
76868;BME280;66168;45.478;11.060;2023-04-03T00:49:20;100421.73;;;13.03;48.40
76868;BME280;66168;45.478;11.060;2023-04-03T00:51:46;100424.29;;;13.05;48.35
76868;BME280;66168;45.478;11.060;2023-04-03T00:54:12;100420.19;;;13.07;48.22
76868;BME280;66168;45.478;11.060;2023-04-03T00:56:39;100421.38;;;13.09;48.19
76868;BME280;66168;45.478;11.060;2023-04-03T00:59:12;100421.30;;;13.11;48.07
76868;BME280;66168;45.478;11.060;2023-04-03T01:01:39;100420.48;;;13.11;47.92
76868;BME280;66168;45.478;11.060;2023-04-03T01:04:23;100420.22;;;13.15;47.96
76868;BME280;66168;45.478;11.060;2023-04-03T01:06:55;100418.95;;;13.16;47.85
76868;BME280;66168;45.478;11.060;2023-04-03T01:09:22;100418.71;;;13.18;47.80
76868;BME280;66168;45.478;11.060;2023-04-03T01:11:48;100420.44;;;13.20;47.85
76868;BME280;66168;45.478;11.060;2023-04-03T01:14:14;100421.95;;;13.23;47.62
76868;BME280;66168;45.478;11.060;2023-04-03T01:16:40;100419.86;;;13.22;47.54
76868;BME280;66168;45.478;11.060;2023-04-03T01:19:15;100418.13;;;13.22;47.56
76868;BME280;66168;45.478;11.060;2023-04-03T01:24:40;100416.10;;;13.23;47.39
76868;BME280;66168;45.478;11.060;2023-04-03T01:27:09;100417.55;;;13.24;47.37
76868;BME280;66168;45.478;11.060;2023-04-03T01:29:38;100416.86;;;13.26;47.43
76868;BME280;66168;45.478;11.060;2023-04-03T01:32:05;100412.55;;;13.26;47.36
76868;BME280;66168;45.478;11.060;2023-04-03T01:34:32;100408.97;;;13.26;47.34
76868;BME280;66168;45.478;11.060;2023-04-03T01:36:58;100405.61;;;13.26;47.21
76868;BME280;66168;45.478;11.060;2023-04-03T01:39:24;100405.61;;;13.27;47.22
76868;BME280;66168;45.478;11.060;2023-04-03T01:41:50;100406.86;;;13.29;47.35
76868;BME280;66168;45.478;11.060;2023-04-03T01:44:27;100408.95;;;13.29;47.37
76868;BME280;66168;45.478;11.060;2023-04-03T01:46:53;100408.91;;;13.29;47.46
76868;BME280;66168;45.478;11.060;2023-04-03T01:49:19;100411.58;;;13.28;47.40
76868;BME280;66168;45.478;11.060;2023-04-03T01:51:45;100412.52;;;13.28;47.52
76868;BME280;66168;45.478;11.060;2023-04-03T01:54:11;100413.52;;;13.27;47.57
76868;BME280;66168;45.478;11.060;2023-04-03T01:56:37;100412.45;;;13.23;47.58
76868;BME280;66168;45.478;11.060;2023-04-03T01:59:04;100413.10;;;13.20;47.58
76868;BME280;66168;45.478;11.060;2023-04-03T02:01:30;100411.45;;;13.19;47.54
76868;BME280;66168;45.478;11.060;2023-04-03T02:03:56;100409.03;;;13.19;47.45
76868;BME280;66168;45.478;11.060;2023-04-03T02:06:23;100404.09;;;13.18;47.56
76868;BME280;66168;45.478;11.060;2023-04-03T02:08:49;100403.29;;;13.19;47.61
76868;BME280;66168;45.478;11.060;2023-04-03T02:11:15;100402.75;;;13.19;47.56
76868;BME280;66168;45.478;11.060;2023-04-03T02:13:42;100402.90;;;13.18;47.50
76868;BME280;66168;45.478;11.060;2023-04-03T02:16:11;100401.38;;;13.17;47.63
76868;BME280;66168;45.478;11.060;2023-04-03T02:18:38;100402.77;;;13.16;47.68
76868;BME280;66168;45.478;11.060;2023-04-03T02:21:05;100405.02;;;13.15;47.57
76868;BME280;66168;45.478;11.060;2023-04-03T02:23:31;100403.29;;;13.12;47.64
76868;BME280;66168;45.478;11.060;2023-04-03T02:26:09;100401.06;;;13.09;47.66
76868;BME280;66168;45.478;11.060;2023-04-03T02:28:36;100401.49;;;13.07;47.74
76868;BME280;66168;45.478;11.060;2023-04-03T02:31:03;100395.36;;;13.05;47.76
76868;BME280;66168;45.478;11.060;2023-04-03T02:33:30;100402.50;;;13.04;47.94
76868;BME280;66168;45.478;11.060;2023-04-03T02:35:57;100397.13;;;13.02;47.99
76868;BME280;66168;45.478;11.060;2023-04-03T02:38:24;100400.61;;;13.01;48.05
76868;BME280;66168;45.478;11.060;2023-04-03T02:40:52;100396.41;;;13.01;48.12
76868;BME280;66168;45.478;11.060;2023-04-03T02:43:18;100398.84;;;13.00;48.30
76868;BME280;66168;45.478;11.060;2023-04-03T02:45:44;100397.42;;;12.98;48.36
76868;BME280;66168;45.478;11.060;2023-04-03T02:48:10;100397.80;;;12.98;48.35
76868;BME280;66168;45.478;11.060;2023-04-03T02:50:36;100397.84;;;12.98;48.55
76868;BME280;66168;45.478;11.060;2023-04-03T02:53:03;100398.42;;;12.95;48.47
76868;BME280;66168;45.478;11.060;2023-04-03T02:55:29;100402.49;;;12.92;48.50
76868;BME280;66168;45.478;11.060;2023-04-03T02:57:55;100401.02;;;12.86;48.51
76868;BME280;66168;45.478;11.060;2023-04-03T03:00:21;100396.92;;;12.71;48.78
76868;BME280;66168;45.478;11.060;2023-04-03T03:02:48;100398.92;;;12.62;49.01
76868;BME280;66168;45.478;11.060;2023-04-03T03:05:15;100406.60;;;12.56;49.13
76868;BME280;66168;45.478;11.060;2023-04-03T03:07:41;100401.73;;;12.51;49.43
76868;BME280;66168;45.478;11.060;2023-04-03T03:10:07;100404.96;;;12.51;49.60
76868;BME280;66168;45.478;11.060;2023-04-03T03:12:33;100409.23;;;12.50;49.62
76868;BME280;66168;45.478;11.060;2023-04-03T03:15:00;100410.77;;;12.48;49.74
76868;BME280;66168;45.478;11.060;2023-04-03T03:17:25;100408.96;;;12.47;49.83
76868;BME280;66168;45.478;11.060;2023-04-03T03:19:52;100407.91;;;12.45;49.96
76868;BME280;66168;45.478;11.060;2023-04-03T03:22:18;100405.55;;;12.42;49.96
76868;BME280;66168;45.478;11.060;2023-04-03T03:24:44;100405.94;;;12.39;50.12
76868;BME280;66168;45.478;11.060;2023-04-03T03:27:10;100405.40;;;12.38;50.13
76868;BME280;66168;45.478;11.060;2023-04-03T03:29:36;100405.98;;;12.33;50.05
76868;BME280;66168;45.478;11.060;2023-04-03T03:32:02;100404.77;;;12.26;50.45
76868;BME280;66168;45.478;11.060;2023-04-03T03:34:28;100402.05;;;12.25;50.59
76868;BME280;66168;45.478;11.060;2023-04-03T03:36:54;100403.08;;;12.25;50.64
76868;BME280;66168;45.478;11.060;2023-04-03T03:39:21;100405.55;;;12.26;50.73
76868;BME280;66168;45.478;11.060;2023-04-03T03:41:47;100409.48;;;12.27;50.85
76868;BME280;66168;45.478;11.060;2023-04-03T03:44:15;100414.40;;;12.27;50.99
76868;BME280;66168;45.478;11.060;2023-04-03T03:46:41;100414.34;;;12.28;50.90
76868;BME280;66168;45.478;11.060;2023-04-03T03:49:07;100413.15;;;12.29;50.96
76868;BME280;66168;45.478;11.060;2023-04-03T03:51:34;100416.63;;;12.28;51.05
76868;BME280;66168;45.478;11.060;2023-04-03T03:54:01;100421.71;;;12.19;51.29
76868;BME280;66168;45.478;11.060;2023-04-03T03:56:27;100421.55;;;12.14;51.66
76868;BME280;66168;45.478;11.060;2023-04-03T03:58:53;100429.23;;;12.11;51.49
76868;BME280;66168;45.478;11.060;2023-04-03T04:01:20;100433.92;;;12.04;51.80
76868;BME280;66168;45.478;11.060;2023-04-03T04:03:47;100435.24;;;11.93;51.78
76868;BME280;66168;45.478;11.060;2023-04-03T04:06:16;100441.73;;;11.86;52.33
76868;BME280;66168;45.478;11.060;2023-04-03T04:08:43;100446.49;;;11.87;52.64
76868;BME280;66168;45.478;11.060;2023-04-03T04:11:10;100447.45;;;11.88;52.57
76868;BME280;66168;45.478;11.060;2023-04-03T04:13:36;100446.00;;;11.91;52.51
76868;BME280;66168;45.478;11.060;2023-04-03T04:16:03;100452.53;;;11.91;52.51
76868;BME280;66168;45.478;11.060;2023-04-03T04:18:29;100451.11;;;11.93;52.52
76868;BME280;66168;45.478;11.060;2023-04-03T04:20:56;100448.44;;;11.93;52.63
76868;BME280;66168;45.478;11.060;2023-04-03T04:23:22;100444.04;;;11.95;52.88
76868;BME280;66168;45.478;11.060;2023-04-03T04:25:49;100441.04;;;11.98;53.07
76868;BME280;66168;45.478;11.060;2023-04-03T04:28:16;100441.03;;;12.02;52.98
76868;BME280;66168;45.478;11.060;2023-04-03T04:30:43;100440.18;;;12.06;52.95
76868;BME280;66168;45.478;11.060;2023-04-03T04:33:09;100439.66;;;12.08;52.90
76868;BME280;66168;45.478;11.060;2023-04-03T04:35:36;100442.16;;;12.11;53.13
76868;BME280;66168;45.478;11.060;2023-04-03T04:38:02;100441.02;;;12.13;53.22
76868;BME280;66168;45.478;11.060;2023-04-03T04:40:29;100448.17;;;12.14;53.26
76868;BME280;66168;45.478;11.060;2023-04-03T04:42:55;100448.55;;;12.11;53.28
76868;BME280;66168;45.478;11.060;2023-04-03T04:45:21;100444.08;;;12.10;53.42
76868;BME280;66168;45.478;11.060;2023-04-03T04:47:47;100446.09;;;12.11;53.59
76868;BME280;66168;45.478;11.060;2023-04-03T04:50:13;100446.77;;;12.14;53.37
76868;BME280;66168;45.478;11.060;2023-04-03T04:52:39;100446.20;;;12.14;53.57
76868;BME280;66168;45.478;11.060;2023-04-03T04:55:06;100452.73;;;12.15;53.27
76868;BME280;66168;45.478;11.060;2023-04-03T04:57:33;100457.83;;;12.15;53.40
76868;BME280;66168;45.478;11.060;2023-04-03T04:59:59;100459.39;;;12.17;53.32
76868;BME280;66168;45.478;11.060;2023-04-03T05:02:26;100458.01;;;12.18;53.38
76868;BME280;66168;45.478;11.060;2023-04-03T05:04:52;100457.44;;;12.19;53.65
76868;BME280;66168;45.478;11.060;2023-04-03T05:07:22;100457.29;;;12.20;53.71
76868;BME280;66168;45.478;11.060;2023-04-03T05:09:48;100461.29;;;12.22;53.89
76868;BME280;66168;45.478;11.060;2023-04-03T05:12:16;100463.96;;;12.23;53.96
76868;BME280;66168;45.478;11.060;2023-04-03T05:14:47;100468.23;;;12.23;54.10
76868;BME280;66168;45.478;11.060;2023-04-03T05:17:14;100469.98;;;12.22;54.22
76868;BME280;66168;45.478;11.060;2023-04-03T05:19:44;100470.58;;;12.22;54.18
76868;BME280;66168;45.478;11.060;2023-04-03T05:22:10;100472.14;;;12.25;54.13
76868;BME280;66168;45.478;11.060;2023-04-03T05:24:36;100475.77;;;12.26;54.35
76868;BME280;66168;45.478;11.060;2023-04-03T05:27:03;100480.40;;;12.26;54.53
76868;BME280;66168;45.478;11.060;2023-04-03T05:29:30;100483.91;;;12.29;54.64
76868;BME280;66168;45.478;11.060;2023-04-03T05:31:57;100484.91;;;12.35;54.61
76868;BME280;66168;45.478;11.060;2023-04-03T05:34:24;100489.95;;;12.38;54.36
76868;BME280;66168;45.478;11.060;2023-04-03T05:36:50;100490.59;;;12.39;54.25
76868;BME280;66168;45.478;11.060;2023-04-03T05:39:17;100490.54;;;12.45;54.40
76868;BME280;66168;45.478;11.060;2023-04-03T05:41:43;100489.77;;;12.58;54.33
76868;BME280;66168;45.478;11.060;2023-04-03T05:44:10;100494.28;;;12.74;54.22
76868;BME280;66168;45.478;11.060;2023-04-03T05:46:36;100497.65;;;12.91;54.11
76868;BME280;66168;45.478;11.060;2023-04-03T05:49:04;100495.89;;;13.08;53.98
76868;BME280;66168;45.478;11.060;2023-04-03T05:51:34;100491.82;;;13.23;53.88
76868;BME280;66168;45.478;11.060;2023-04-03T05:54:22;100495.22;;;13.35;53.61
76868;BME280;66168;45.478;11.060;2023-04-03T05:56:50;100498.30;;;13.43;53.69
76868;BME280;66168;45.478;11.060;2023-04-03T05:59:18;100491.48;;;13.50;53.56
76868;BME280;66168;45.478;11.060;2023-04-03T06:01:46;100485.88;;;13.57;53.40
76868;BME280;66168;45.478;11.060;2023-04-03T06:04:13;100491.10;;;13.66;53.31
76868;BME280;66168;45.478;11.060;2023-04-03T06:06:54;100490.10;;;13.73;53.21
76868;BME280;66168;45.478;11.060;2023-04-03T06:09:23;100491.85;;;13.81;53.20
76868;BME280;66168;45.478;11.060;2023-04-03T06:11:50;100487.52;;;13.90;53.06
76868;BME280;66168;45.478;11.060;2023-04-03T06:14:18;100482.08;;;13.97;52.97
76868;BME280;66168;45.478;11.060;2023-04-03T06:16:45;100485.80;;;14.08;52.84
76868;BME280;66168;45.478;11.060;2023-04-03T06:19:11;100489.04;;;14.21;52.91
76868;BME280;66168;45.478;11.060;2023-04-03T06:21:40;100493.88;;;14.36;52.58
76868;BME280;66168;45.478;11.060;2023-04-03T06:24:07;100494.84;;;14.47;52.43
76868;BME280;66168;45.478;11.060;2023-04-03T06:26:34;100500.64;;;14.56;52.31
76868;BME280;66168;45.478;11.060;2023-04-03T06:29:00;100500.86;;;14.59;52.06
76868;BME280;66168;45.478;11.060;2023-04-03T06:31:27;100504.89;;;14.65;52.09
76868;BME280;66168;45.478;11.060;2023-04-03T06:33:53;100506.25;;;14.68;52.17
76868;BME280;66168;45.478;11.060;2023-04-03T06:36:20;100501.60;;;14.73;52.46
76868;BME280;66168;45.478;11.060;2023-04-03T06:38:47;100496.66;;;14.84;52.45
76868;BME280;66168;45.478;11.060;2023-04-03T06:41:14;100498.41;;;14.97;52.26
76868;BME280;66168;45.478;11.060;2023-04-03T06:43:40;100497.95;;;15.03;52.20
76868;BME280;66168;45.478;11.060;2023-04-03T06:46:06;100498.60;;;15.14;52.25
76868;BME280;66168;45.478;11.060;2023-04-03T06:48:32;100498.23;;;15.32;52.30
76868;BME280;66168;45.478;11.060;2023-04-03T06:50:58;100503.11;;;15.43;51.97
76868;BME280;66168;45.478;11.060;2023-04-03T06:53:24;100504.14;;;15.54;52.08
76868;BME280;66168;45.478;11.060;2023-04-03T06:55:50;100505.98;;;15.67;51.83
76868;BME280;66168;45.478;11.060;2023-04-03T06:58:16;100503.70;;;15.80;51.67
76868;BME280;66168;45.478;11.060;2023-04-03T07:00:43;100498.49;;;15.74;51.67
76868;BME280;66168;45.478;11.060;2023-04-03T07:03:09;100494.59;;;15.56;52.13
76868;BME280;66168;45.478;11.060;2023-04-03T07:05:35;100499.23;;;15.40;52.52
76868;BME280;66168;45.478;11.060;2023-04-03T07:08:02;100501.50;;;15.51;52.55
76868;BME280;66168;45.478;11.060;2023-04-03T07:10:28;100501.08;;;15.66;52.41
76868;BME280;66168;45.478;11.060;2023-04-03T07:12:54;100503.02;;;15.85;52.29
76868;BME280;66168;45.478;11.060;2023-04-03T07:15:20;100505.84;;;16.00;51.80
76868;BME280;66168;45.478;11.060;2023-04-03T07:17:46;100504.40;;;16.07;51.62
76868;BME280;66168;45.478;11.060;2023-04-03T07:20:12;100506.52;;;16.12;51.48
76868;BME280;66168;45.478;11.060;2023-04-03T07:22:38;100505.88;;;16.15;51.47
76868;BME280;66168;45.478;11.060;2023-04-03T07:25:05;100508.55;;;16.16;51.28
76868;BME280;66168;45.478;11.060;2023-04-03T07:27:33;100514.80;;;16.08;51.59
76868;BME280;66168;45.478;11.060;2023-04-03T07:29:59;100515.36;;;16.10;51.50
76868;BME280;66168;45.478;11.060;2023-04-03T07:32:25;100516.36;;;16.18;51.39
76868;BME280;66168;45.478;11.060;2023-04-03T07:34:51;100520.39;;;16.20;51.32
76868;BME280;66168;45.478;11.060;2023-04-03T07:37:17;100523.35;;;16.21;51.43
76868;BME280;66168;45.478;11.060;2023-04-03T07:39:44;100527.83;;;16.32;50.92
76868;BME280;66168;45.478;11.060;2023-04-03T07:42:10;100532.26;;;16.22;51.06
76868;BME280;66168;45.478;11.060;2023-04-03T07:44:37;100535.64;;;16.15;50.96
76868;BME280;66168;45.478;11.060;2023-04-03T07:47:03;100534.59;;;16.18;51.07
76868;BME280;66168;45.478;11.060;2023-04-03T07:49:29;100534.44;;;16.24;50.86
76868;BME280;66168;45.478;11.060;2023-04-03T07:51:56;100532.93;;;16.27;50.83
76868;BME280;66168;45.478;11.060;2023-04-03T07:54:22;100531.99;;;16.25;50.72
76868;BME280;66168;45.478;11.060;2023-04-03T07:56:47;100535.96;;;16.31;50.84
76868;BME280;66168;45.478;11.060;2023-04-03T07:59:14;100535.95;;;16.40;50.81
76868;BME280;66168;45.478;11.060;2023-04-03T08:01:40;100534.77;;;16.53;50.66
76868;BME280;66168;45.478;11.060;2023-04-03T08:04:06;100533.40;;;16.67;50.45
76868;BME280;66168;45.478;11.060;2023-04-03T08:06:32;100537.34;;;16.75;50.51
76868;BME280;66168;45.478;11.060;2023-04-03T08:09:13;100537.08;;;16.94;50.14
76868;BME280;66168;45.478;11.060;2023-04-03T08:11:41;100531.05;;;17.07;49.74
76868;BME280;66168;45.478;11.060;2023-04-03T08:14:07;100537.80;;;17.19;49.37
76868;BME280;66168;45.478;11.060;2023-04-03T08:16:33;100541.42;;;17.24;49.30
76868;BME280;66168;45.478;11.060;2023-04-03T08:18:59;100535.45;;;17.25;48.45
76868;BME280;66168;45.478;11.060;2023-04-03T08:21:25;100529.65;;;17.11;48.79
76868;BME280;66168;45.478;11.060;2023-04-03T08:23:51;100534.85;;;16.92;48.26
76868;BME280;66168;45.478;11.060;2023-04-03T08:26:20;100543.50;;;16.70;48.85
76868;BME280;66168;45.478;11.060;2023-04-03T08:28:47;100542.96;;;16.65;48.98
76868;BME280;66168;45.478;11.060;2023-04-03T08:31:18;100541.70;;;16.69;49.03
76868;BME280;66168;45.478;11.060;2023-04-03T08:33:44;100544.54;;;16.69;48.99
76868;BME280;66168;45.478;11.060;2023-04-03T08:36:23;100546.39;;;16.81;49.19
76868;BME280;66168;45.478;11.060;2023-04-03T08:38:52;100539.16;;;17.09;48.73
76868;BME280;66168;45.478;11.060;2023-04-03T08:41:35;100542.92;;;17.31;48.42
76868;BME280;66168;45.478;11.060;2023-04-03T08:44:20;100539.08;;;17.52;48.08
76868;BME280;66168;45.478;11.060;2023-04-03T08:46:56;100538.42;;;17.65;47.33
76868;BME280;66168;45.478;11.060;2023-04-03T08:49:37;100541.02;;;17.56;47.28
76868;BME280;66168;45.478;11.060;2023-04-03T08:52:11;100540.02;;;17.53;47.15
76868;BME280;66168;45.478;11.060;2023-04-03T08:54:53;100532.30;;;17.54;47.36
76868;BME280;66168;45.478;11.060;2023-04-03T08:57:36;100527.02;;;17.64;47.05
76868;BME280;66168;45.478;11.060;2023-04-03T09:00:25;100536.30;;;17.71;46.92
76868;BME280;66168;45.478;11.060;2023-04-03T09:02:55;100535.13;;;17.89;46.75
76868;BME280;66168;45.478;11.060;2023-04-03T09:05:39;100537.00;;;18.06;46.05
76868;BME280;66168;45.478;11.060;2023-04-03T09:11:25;100543.05;;;18.26;45.93
76868;BME280;66168;45.478;11.060;2023-04-03T09:14:07;100542.27;;;18.57;45.37
76868;BME280;66168;45.478;11.060;2023-04-03T09:16:49;100541.29;;;18.75;44.57
76868;BME280;66168;45.478;11.060;2023-04-03T09:20:38;100539.52;;;18.83;44.26
76868;BME280;66168;45.478;11.060;2023-04-03T09:22:33;100536.42;;;18.92;44.22
76868;BME280;66168;45.478;11.060;2023-04-03T09:25:16;100534.17;;;18.90;44.23
76868;BME280;66168;45.478;11.060;2023-04-03T09:27:43;100534.69;;;18.94;44.07
76868;BME280;66168;45.478;11.060;2023-04-03T09:30:18;100533.08;;;19.06;43.45
76868;BME280;66168;45.478;11.060;2023-04-03T09:32:46;100535.36;;;19.08;42.93
76868;BME280;66168;45.478;11.060;2023-04-03T09:35:34;100529.73;;;19.08;42.59
76868;BME280;66168;45.478;11.060;2023-04-03T09:40:41;100525.54;;;19.22;42.60
76868;BME280;66168;45.478;11.060;2023-04-03T09:45:45;100528.85;;;19.03;42.04
76868;BME280;66168;45.478;11.060;2023-04-03T09:53:41;100526.61;;;19.82;41.49
76868;BME280;66168;45.478;11.060;2023-04-03T09:58:45;100521.01;;;20.26;40.43
76868;BME280;66168;45.478;11.060;2023-04-03T10:01:38;100526.04;;;20.26;40.20
76868;BME280;66168;45.478;11.060;2023-04-03T10:04:13;100519.32;;;20.01;39.86
76868;BME280;66168;45.478;11.060;2023-04-03T10:06:45;100515.73;;;19.75;39.98
76868;BME280;66168;45.478;11.060;2023-04-03T10:09:31;100519.64;;;19.41;40.73
76868;BME280;66168;45.478;11.060;2023-04-03T10:12:09;100520.10;;;18.99;41.08
76868;BME280;66168;45.478;11.060;2023-04-03T10:14:40;100520.30;;;18.60;41.23
76868;BME280;66168;45.478;11.060;2023-04-03T10:20:25;100515.64;;;17.81;42.07
76868;BME280;66168;45.478;11.060;2023-04-03T10:23:14;100515.36;;;17.54;42.63
76868;BME280;66168;45.478;11.060;2023-04-03T10:29:00;100515.91;;;17.24;43.05
76868;BME280;66168;45.478;11.060;2023-04-03T10:34:21;100498.40;;;16.94;43.73
76868;BME280;66168;45.478;11.060;2023-04-03T10:36:53;100500.70;;;16.99;43.83
76868;BME280;66168;45.478;11.060;2023-04-03T10:42:18;100497.05;;;17.45;43.28
76868;BME280;66168;45.478;11.060;2023-04-03T10:48:04;100496.61;;;17.39;43.22
76868;BME280;66168;45.478;11.060;2023-04-03T10:51:00;100492.75;;;17.09;43.03
76868;BME280;66168;45.478;11.060;2023-04-03T10:53:36;100493.73;;;16.78;43.25
76868;BME280;66168;45.478;11.060;2023-04-03T10:58:45;100499.61;;;16.33;44.34
76868;BME280;66168;45.478;11.060;2023-04-03T11:01:29;100505.27;;;16.33;44.27
76868;BME280;66168;45.478;11.060;2023-04-03T11:03:59;100498.05;;;16.27;44.50
76868;BME280;66168;45.478;11.060;2023-04-03T11:06:36;100497.80;;;16.20;44.45
76868;BME280;66168;45.478;11.060;2023-04-03T11:09:19;100498.27;;;16.00;44.81
76868;BME280;66168;45.478;11.060;2023-04-03T11:11:48;100492.00;;;15.95;45.12
76868;BME280;66168;45.478;11.060;2023-04-03T11:14:37;100481.67;;;16.06;45.06
76868;BME280;66168;45.478;11.060;2023-04-03T11:20:03;100479.64;;;16.00;45.12
76868;BME280;66168;45.478;11.060;2023-04-03T11:22:36;100477.73;;;16.07;45.03
76868;BME280;66168;45.478;11.060;2023-04-03T11:25:15;100474.73;;;16.04;44.68
76868;BME280;66168;45.478;11.060;2023-04-03T11:27:51;100472.66;;;16.00;45.10
76868;BME280;66168;45.478;11.060;2023-04-03T11:30:30;100471.50;;;16.02;45.39
76868;BME280;66168;45.478;11.060;2023-04-03T11:35:57;100477.37;;;15.66;45.64
76868;BME280;66168;45.478;11.060;2023-04-03T11:38:31;100472.20;;;15.67;45.45
76868;BME280;66168;45.478;11.060;2023-04-03T11:41:06;100469.37;;;15.75;45.69
76868;BME280;66168;45.478;11.060;2023-04-03T11:43:34;100467.52;;;15.64;45.40
76868;BME280;66168;45.478;11.060;2023-04-03T11:46:07;100460.11;;;15.43;45.72
76868;BME280;66168;45.478;11.060;2023-04-03T11:53:53;100458.85;;;15.11;46.21
76868;BME280;66168;45.478;11.060;2023-04-03T12:01:52;100441.67;;;15.53;46.06
76868;BME280;66168;45.478;11.060;2023-04-03T12:04:22;100443.52;;;15.72;45.72
76868;BME280;66168;45.478;11.060;2023-04-03T12:06:52;100444.27;;;15.78;45.69
76868;BME280;66168;45.478;11.060;2023-04-03T12:09:27;100442.89;;;15.74;45.53
76868;BME280;66168;45.478;11.060;2023-04-03T12:11:56;100442.35;;;15.57;45.58
76868;BME280;66168;45.478;11.060;2023-04-03T12:14:23;100440.81;;;15.48;45.67
76868;BME280;66168;45.478;11.060;2023-04-03T12:16:53;100436.65;;;15.34;45.56
76868;BME280;66168;45.478;11.060;2023-04-03T12:37:00;100410.91;;;15.36;45.50
76868;BME280;66168;45.478;11.060;2023-04-03T12:39:51;100410.23;;;15.33;45.67
76868;BME280;66168;45.478;11.060;2023-04-03T12:48:13;100406.02;;;15.32;45.71
76868;BME280;66168;45.478;11.060;2023-04-03T12:50:41;100403.39;;;15.29;45.61
76868;BME280;66168;45.478;11.060;2023-04-03T12:55:44;100400.15;;;15.14;45.91
76868;BME280;66168;45.478;11.060;2023-04-03T12:58:22;100398.19;;;15.09;45.88
76868;BME280;66168;45.478;11.060;2023-04-03T13:01:00;100397.63;;;15.07;46.03
76868;BME280;66168;45.478;11.060;2023-04-03T13:03:27;100395.92;;;15.11;46.09
76868;BME280;66168;45.478;11.060;2023-04-03T13:05:58;100390.56;;;15.23;46.12
76868;BME280;66168;45.478;11.060;2023-04-03T13:08:26;100392.67;;;15.31;45.82
76868;BME280;66168;45.478;11.060;2023-04-03T13:10:59;100397.20;;;15.31;45.96
76868;BME280;66168;45.478;11.060;2023-04-03T13:13:27;100397.16;;;15.30;45.93
76868;BME280;66168;45.478;11.060;2023-04-03T13:15:53;100392.84;;;15.30;46.14
76868;BME280;66168;45.478;11.060;2023-04-03T13:18:33;100394.11;;;15.41;46.20
76868;BME280;66168;45.478;11.060;2023-04-03T13:21:10;100390.84;;;15.49;45.84
76868;BME280;66168;45.478;11.060;2023-04-03T13:23:43;100389.50;;;15.41;45.87
76868;BME280;66168;45.478;11.060;2023-04-03T13:26:11;100389.59;;;15.37;45.92
76868;BME280;66168;45.478;11.060;2023-04-03T13:28:40;100390.35;;;15.24;45.89
76868;BME280;66168;45.478;11.060;2023-04-03T13:31:19;100386.44;;;15.13;45.80
76868;BME280;66168;45.478;11.060;2023-04-03T13:33:59;100387.43;;;14.97;46.53
76868;BME280;66168;45.478;11.060;2023-04-03T13:36:45;100386.09;;;14.94;46.49
76868;BME280;66168;45.478;11.060;2023-04-03T13:41:44;100382.57;;;14.84;46.76
76868;BME280;66168;45.478;11.060;2023-04-03T13:46:51;100384.16;;;14.74;46.69
76868;BME280;66168;45.478;11.060;2023-04-03T13:49:38;100382.25;;;14.74;47.15
76868;BME280;66168;45.478;11.060;2023-04-03T13:52:33;100383.10;;;14.79;46.93
76868;BME280;66168;45.478;11.060;2023-04-03T13:57:57;100380.15;;;14.73;46.79
76868;BME280;66168;45.478;11.060;2023-04-03T14:00:59;100377.32;;;14.71;47.00
76868;BME280;66168;45.478;11.060;2023-04-03T14:06:15;100370.48;;;14.65;47.03
76868;BME280;66168;45.478;11.060;2023-04-03T14:08:43;100370.04;;;14.67;47.24
76868;BME280;66168;45.478;11.060;2023-04-03T14:11:18;100371.34;;;14.73;47.20
76868;BME280;66168;45.478;11.060;2023-04-03T14:13:47;100366.80;;;14.76;47.07
76868;BME280;66168;45.478;11.060;2023-04-03T14:16:20;100366.77;;;14.81;47.06
76868;BME280;66168;45.478;11.060;2023-04-03T14:18:47;100366.63;;;14.85;46.78
76868;BME280;66168;45.478;11.060;2023-04-03T14:21:15;100364.98;;;14.84;47.00
76868;BME280;66168;45.478;11.060;2023-04-03T14:23:42;100366.05;;;14.81;46.90
76868;BME280;66168;45.478;11.060;2023-04-03T14:26:17;100362.98;;;14.77;46.76